Time;durP1;ratioP1;P1;durP2;ratioP2;P2;SDS_P1;SDS_P2;PMS_P1;PMS_P2;Temp;Humidity;BMP_temperature;BMP_pressure;BME280_temperature;BME280_humidity;BME280_pressure;Samples;Min_cycle;Max_cycle;Signal;HPM_P1;HPM_P2
2023/07/16 05:20:31;;;;;;;1.98;1.30;;;18.90;99.90;;;;;;5080119;23;20273;-81
2023/07/16 05:22:58;;;;;;;3.53;1.20;;;18.80;99.90;;;;;;4895208;29;20056;-81
2023/07/16 05:25:25;;;;;;;5.50;1.45;;;18.90;99.90;;;;;;4894932;29;20080;-81
2023/07/16 05:27:52;;;;;;;2.65;1.27;;;19.00;99.90;;;;;;4889964;29;20104;-82
2023/07/16 05:30:18;;;;;;;2.58;1.08;;;19.10;99.90;;;;;;4889953;29;20048;-80
2023/07/16 05:32:45;;;;;;;2.40;1.10;;;19.10;99.90;;;;;;4890599;29;20473;-83
2023/07/16 05:35:12;;;;;;;3.80;1.33;;;19.10;99.90;;;;;;4886120;29;20055;-82
2023/07/16 05:37:39;;;;;;;4.50;1.30;;;19.10;99.90;;;;;;4905858;29;20100;-83
2023/07/16 05:40:08;;;;;;;2.58;1.30;;;19.10;99.90;;;;;;4893854;29;20087;-82
2023/07/16 05:42:35;;;;;;;4.70;1.53;;;19.20;99.90;;;;;;4892504;29;20429;-81
2023/07/16 05:45:03;;;;;;;2.30;1.20;;;19.10;99.90;;;;;;4891706;29;20538;-83
2023/07/16 05:47:30;;;;;;;3.55;1.13;;;19.20;99.90;;;;;;4892432;29;20097;-82
2023/07/16 05:49:57;;;;;;;5.97;1.70;;;19.20;99.90;;;;;;4887349;29;20084;-82
2023/07/16 05:52:24;;;;;;;4.38;1.13;;;19.30;99.90;;;;;;4892497;29;20053;-82
2023/07/16 05:54:50;;;;;;;4.38;1.42;;;19.40;99.90;;;;;;4888782;29;20044;-81
2023/07/16 05:57:17;;;;;;;4.28;1.23;;;19.50;99.90;;;;;;4887006;29;20073;-80
2023/07/16 05:59:44;;;;;;;3.58;1.27;;;19.50;99.90;;;;;;4884587;29;20091;-81
2023/07/16 06:02:10;;;;;;;3.08;1.00;;;19.60;99.90;;;;;;4889362;29;20065;-79
2023/07/16 06:04:37;;;;;;;3.88;1.30;;;19.70;99.90;;;;;;4886660;29;20053;-79
2023/07/16 06:07:04;;;;;;;2.13;1.10;;;19.70;99.90;;;;;;4886981;29;20056;-81
2023/07/16 06:09:31;;;;;;;2.85;1.20;;;19.80;99.90;;;;;;4892855;29;20647;-79
2023/07/16 06:11:58;;;;;;;4.35;1.90;;;19.90;99.90;;;;;;4891121;29;20071;-78
2023/07/16 06:14:25;;;;;;;4.95;1.20;;;20.00;99.90;;;;;;4886835;29;20045;-80
2023/07/16 06:16:52;;;;;;;1.25;0.90;;;20.00;99.90;;;;;;4888045;29;20049;-81
2023/07/16 06:19:19;;;;;;;2.40;1.05;;;20.10;99.90;;;;;;4887554;29;20053;-80
2023/07/16 06:21:46;;;;;;;3.75;1.20;;;20.10;99.90;;;;;;4889692;29;20045;-78
2023/07/16 06:24:13;;;;;;;4.38;1.23;;;20.20;99.90;;;;;;4885929;29;20045;-80
2023/07/16 06:26:43;;;;;;;2.88;1.10;;;20.30;99.90;;;;;;4892802;29;20048;-80
2023/07/16 06:29:09;;;;;;;2.60;1.30;;;20.40;99.90;;;;;;4889311;29;20045;-80
2023/07/16 06:31:36;;;;;;;5.28;1.27;;;20.50;99.90;;;;;;4892498;29;20048;-80
2023/07/16 06:34:03;;;;;;;3.58;1.20;;;20.60;99.90;;;;;;4894485;29;20052;-86
2023/07/16 06:36:30;;;;;;;4.95;1.30;;;20.80;99.90;;;;;;4887760;29;20565;-83
2023/07/16 06:38:56;;;;;;;2.72;1.30;;;20.90;99.90;;;;;;4890649;29;20057;-81
2023/07/16 06:41:23;;;;;;;2.60;1.13;;;21.00;99.90;;;;;;4895166;29;20048;-81
2023/07/16 06:43:50;;;;;;;5.78;1.33;;;21.10;99.90;;;;;;4892192;29;20049;-81
2023/07/16 06:46:16;;;;;;;6.25;2.97;;;21.20;99.90;;;;;;4893318;29;20513;-81
2023/07/16 06:48:44;;;;;;;5.70;1.67;;;21.20;99.90;;;;;;4901519;29;20055;-81
2023/07/16 06:51:10;;;;;;;4.25;1.20;;;21.20;99.90;;;;;;4894832;29;20468;-79
2023/07/16 06:53:37;;;;;;;6.40;1.98;;;21.30;99.90;;;;;;4891445;29;20053;-81
2023/07/16 06:56:04;;;;;;;7.15;1.42;;;21.40;99.90;;;;;;4912088;29;20476;-82
2023/07/16 06:58:33;;;;;;;4.22;1.23;;;21.40;99.90;;;;;;4888581;29;20457;-81
2023/07/16 07:01:00;;;;;;;6.47;1.50;;;21.50;99.90;;;;;;4889644;29;20053;-81
2023/07/16 07:03:27;;;;;;;3.20;1.00;;;21.50;99.90;;;;;;4908953;29;20057;-82
2023/07/16 07:05:53;;;;;;;3.00;1.05;;;21.60;99.90;;;;;;4893849;29;20067;-81
2023/07/16 07:08:20;;;;;;;5.13;1.50;;;21.70;99.90;;;;;;4889334;29;20053;-81
2023/07/16 07:10:49;;;;;;;4.57;1.17;;;21.70;99.90;;;;;;4897755;29;20049;-81
2023/07/16 07:13:15;;;;;;;2.85;1.60;;;21.80;99.90;;;;;;4890744;29;20477;-78
2023/07/16 07:15:42;;;;;;;3.00;1.13;;;21.90;99.90;;;;;;4887936;29;20472;-78
2023/07/16 07:18:09;;;;;;;6.28;1.23;;;21.90;99.90;;;;;;4894109;29;20059;-81
2023/07/16 07:20:36;;;;;;;3.10;1.10;;;21.90;99.90;;;;;;4897261;29;20056;-80
2023/07/16 07:23:04;;;;;;;5.40;1.25;;;22.00;99.90;;;;;;4897501;29;20142;-79
2023/07/16 07:25:31;;;;;;;4.20;1.30;;;22.10;99.90;;;;;;4892452;29;20052;-81
2023/07/16 07:27:58;;;;;;;4.72;1.67;;;22.10;99.90;;;;;;4894672;29;20049;-82
2023/07/16 07:30:25;;;;;;;3.53;1.17;;;22.10;99.90;;;;;;4898312;29;20057;-82
2023/07/16 07:32:52;;;;;;;6.28;1.63;;;22.10;99.90;;;;;;4894864;29;20052;-81
2023/07/16 07:35:19;;;;;;;2.70;1.35;;;22.10;99.90;;;;;;4898255;29;20048;-81
2023/07/16 07:37:45;;;;;;;3.63;1.38;;;22.10;99.90;;;;;;4892726;29;20104;-81
2023/07/16 07:40:12;;;;;;;7.72;1.45;;;22.20;99.90;;;;;;4891779;29;20104;-80
2023/07/16 07:42:39;;;;;;;3.53;1.25;;;22.30;99.90;;;;;;4894602;29;20052;-80
2023/07/16 07:45:06;;;;;;;5.97;1.27;;;22.30;99.90;;;;;;4885472;29;20088;-81
2023/07/16 07:47:33;;;;;;;6.63;1.70;;;22.30;99.90;;;;;;4893831;29;20072;-81
2023/07/16 07:50:00;;;;;;;8.73;2.00;;;22.40;99.90;;;;;;4893358;29;20566;-81
2023/07/16 07:52:27;;;;;;;3.28;1.52;;;22.30;99.90;;;;;;4887748;29;20104;-81
2023/07/16 07:54:54;;;;;;;7.60;1.70;;;22.20;99.90;;;;;;4894273;29;20049;-80
2023/07/16 07:57:21;;;;;;;7.47;1.83;;;22.20;99.90;;;;;;4894303;29;20056;-81
2023/07/16 07:59:48;;;;;;;4.72;1.50;;;22.20;99.90;;;;;;4889263;29;20045;-81
2023/07/16 08:02:14;;;;;;;5.97;1.67;;;22.10;99.90;;;;;;4895755;29;20041;-80
2023/07/16 08:04:41;;;;;;;4.72;2.05;;;22.10;99.90;;;;;;4892621;29;20049;-81
2023/07/16 08:07:08;;;;;;;6.80;1.63;;;22.10;99.90;;;;;;4886072;29;20053;-81
2023/07/16 08:09:37;;;;;;;5.10;1.50;;;22.10;99.90;;;;;;4890724;29;20049;-81
2023/07/16 08:12:04;;;;;;;4.22;1.70;;;22.10;99.90;;;;;;4893251;29;20049;-81
2023/07/16 08:14:31;;;;;;;3.67;1.67;;;22.20;99.90;;;;;;4899093;29;20072;-83
2023/07/16 08:16:57;;;;;;;7.90;1.65;;;22.30;99.90;;;;;;4894001;29;20053;-79
2023/07/16 08:19:24;;;;;;;3.97;1.50;;;22.40;99.90;;;;;;4908722;29;20084;-81
2023/07/16 08:21:51;;;;;;;4.22;1.38;;;22.50;99.90;;;;;;4890212;29;20057;-81
2023/07/16 08:24:18;;;;;;;4.90;1.75;;;22.60;99.90;;;;;;4896045;29;20048;-82
2023/07/16 08:26:45;;;;;;;4.53;1.33;;;22.70;99.90;;;;;;4894536;29;20446;-81
2023/07/16 08:29:11;;;;;;;8.32;1.88;;;22.80;99.90;;;;;;4893003;29;20068;-83
2023/07/16 08:31:38;;;;;;;7.07;1.80;;;22.80;99.90;;;;;;4896880;29;20104;-80
2023/07/16 08:34:05;;;;;;;4.47;1.60;;;22.90;99.90;;;;;;4895971;29;20137;-80
2023/07/16 08:36:33;;;;;;;3.67;1.48;;;22.80;99.90;;;;;;4907628;29;20045;-84
2023/07/16 08:39:00;;;;;;;6.00;1.70;;;22.70;99.90;;;;;;4890490;29;20056;-81
2023/07/16 08:41:27;;;;;;;5.18;1.55;;;22.70;99.90;;;;;;4890792;29;20064;-82
2023/07/16 08:43:54;;;;;;;5.20;1.52;;;22.70;99.90;;;;;;4892737;29;20548;-81
2023/07/16 08:46:21;;;;;;;3.97;1.25;;;22.60;99.90;;;;;;4890560;29;20495;-82
2023/07/16 08:48:48;;;;;;;8.63;1.42;;;22.60;99.90;;;;;;4892020;29;20060;-80
2023/07/16 08:51:18;;;;;;;8.52;1.73;;;22.60;99.90;;;;;;4898121;29;20568;-80
2023/07/16 08:53:45;;;;;;;4.88;2.08;;;22.40;99.90;;;;;;4890113;29;20061;-84
2023/07/16 08:56:12;;;;;;;3.92;1.65;;;22.50;99.90;;;;;;4892035;29;20048;-81
2023/07/16 08:58:40;;;;;;;7.78;1.95;;;22.50;99.90;;;;;;4890260;29;20072;-80
2023/07/16 09:01:07;;;;;;;6.40;1.98;;;22.50;99.90;;;;;;4892243;29;20425;-81
2023/07/16 09:03:34;;;;;;;5.25;1.42;;;22.50;99.90;;;;;;4894323;29;20507;-82
2023/07/16 09:06:02;;;;;;;5.20;1.40;;;22.50;99.90;;;;;;4893984;29;20053;-83
2023/07/16 09:08:29;;;;;;;7.57;1.65;;;22.60;99.90;;;;;;4891494;29;20059;-81
2023/07/16 09:10:56;;;;;;;4.85;1.40;;;22.70;99.90;;;;;;4895854;29;20056;-80
2023/07/16 09:13:26;;;;;;;4.05;1.40;;;22.80;99.90;;;;;;4892777;29;20044;-80
2023/07/16 09:15:56;;;;;;;3.75;1.60;;;22.90;99.90;;;;;;4889237;29;20075;-80
2023/07/16 09:18:25;;;;;;;5.00;1.73;;;23.00;99.90;;;;;;4894183;29;20104;-81
2023/07/16 09:21:01;;;;;;;4.20;1.67;;;23.10;99.90;;;;;;4899458;29;20135;-80
2023/07/16 09:23:30;;;;;;;4.15;1.50;;;23.10;99.90;;;;;;4892596;29;20112;-81
2023/07/16 09:25:57;;;;;;;5.45;1.40;;;23.20;99.90;;;;;;4895620;29;20053;-81
2023/07/16 09:28:24;;;;;;;5.55;1.60;;;23.20;99.90;;;;;;4891020;29;20145;-82
2023/07/16 09:30:52;;;;;;;3.33;1.45;;;23.30;99.90;;;;;;4888212;29;20049;-79
2023/07/16 09:33:21;;;;;;;4.05;1.35;;;23.20;99.90;;;;;;4894101;29;20049;-81
2023/07/16 09:35:49;;;;;;;4.57;1.20;;;23.30;99.90;;;;;;4893910;29;20421;-81
2023/07/16 09:38:17;;;;;;;4.63;1.50;;;23.30;99.90;;;;;;4903880;29;20064;-81
2023/07/16 09:40:45;;;;;;;6.70;1.50;;;23.30;99.90;;;;;;4894629;29;20048;-81
2023/07/16 09:43:12;;;;;;;5.95;1.42;;;23.30;99.90;;;;;;4893799;29;20056;-81
2023/07/16 09:45:40;;;;;;;3.35;1.20;;;23.40;99.90;;;;;;4901590;29;20125;-81
2023/07/16 09:48:08;;;;;;;7.38;1.45;;;23.50;99.90;;;;;;4902890;29;20048;-80
2023/07/16 09:50:36;;;;;;;3.22;1.38;;;23.60;99.90;;;;;;4895816;29;20112;-80
2023/07/16 09:53:07;;;;;;;7.25;1.50;;;23.80;99.90;;;;;;4904570;29;20057;-81
2023/07/16 09:55:35;;;;;;;8.20;1.42;;;24.00;99.90;;;;;;4890538;29;20049;-81
2023/07/16 09:58:08;;;;;;;4.75;1.38;;;24.10;99.90;;;;;;4891641;29;20056;-82
2023/07/16 10:00:37;;;;;;;5.82;1.40;;;24.30;99.90;;;;;;4911268;29;20059;-81
2023/07/16 10:03:07;;;;;;;4.68;1.40;;;24.30;99.90;;;;;;4898114;29;20057;-80
2023/07/16 10:05:37;;;;;;;5.15;1.20;;;24.30;99.90;;;;;;4896073;29;20056;-78
2023/07/16 10:08:04;;;;;;;11.65;1.65;;;24.30;99.90;;;;;;4891734;29;20470;-81
2023/07/16 10:10:54;;;;;;;6.40;2.55;;;24.30;99.90;;;;;;4890837;29;20080;-82
2023/07/16 10:13:23;;;;;;;5.22;1.90;;;24.30;99.90;;;;;;4889332;29;20052;-81
2023/07/16 10:15:58;;;;;;;5.53;1.35;;;24.20;99.90;;;;;;4898635;29;20048;-79
2023/07/16 10:18:30;;;;;;;5.25;1.30;;;24.10;99.90;;;;;;4893262;29;20063;-79
2023/07/16 10:21:07;;;;;;;3.75;1.50;;;24.10;99.90;;;;;;4895814;29;20481;-81
2023/07/16 10:23:39;;;;;;;4.47;1.38;;;24.00;99.90;;;;;;4887831;29;20086;-80
2023/07/16 10:26:06;;;;;;;8.88;1.65;;;23.90;99.90;;;;;;4892617;29;20061;-82
2023/07/16 10:28:36;;;;;;;3.80;1.45;;;23.90;99.90;;;;;;4893132;29;20049;-83
2023/07/16 10:31:03;;;;;;;7.75;1.40;;;23.90;99.90;;;;;;4892914;29;20045;-81
2023/07/16 10:33:30;;;;;;;5.85;1.90;;;23.70;99.90;;;;;;4891721;29;20049;-80
2023/07/16 10:36:01;;;;;;;5.32;1.52;;;23.70;99.90;;;;;;4891145;29;20057;-80
2023/07/16 10:38:27;;;;;;;4.97;1.35;;;23.80;99.90;;;;;;4884256;29;20053;-81
2023/07/16 10:40:56;;;;;;;8.15;1.90;;;23.80;99.90;;;;;;4891149;29;20052;-80
2023/07/16 10:43:23;;;;;;;5.57;1.90;;;23.90;99.90;;;;;;4897398;29;20052;-79
2023/07/16 10:45:51;;;;;;;5.45;1.40;;;23.90;99.90;;;;;;4893467;29;20112;-80
2023/07/16 10:48:24;;;;;;;3.85;1.67;;;23.90;99.90;;;;;;4889897;29;20543;-81
2023/07/16 10:50:54;;;;;;;6.82;1.88;;;23.90;99.90;;;;;;4894137;29;20045;-82
2023/07/16 10:53:21;;;;;;;4.10;1.38;;;24.00;99.90;;;;;;4887311;29;20049;-82
2023/07/16 10:55:48;;;;;;;6.70;1.27;;;24.00;99.90;;;;;;4893928;29;20419;-82
2023/07/16 10:58:15;;;;;;;6.38;1.70;;;24.00;99.90;;;;;;4893801;29;20088;-80
2023/07/16 11:00:41;;;;;;;5.55;1.50;;;24.10;99.90;;;;;;4908193;29;20567;-82
2023/07/16 11:03:09;;;;;;;3.78;1.42;;;24.10;99.90;;;;;;4890552;29;20053;-82
2023/07/16 11:05:36;;;;;;;4.45;1.55;;;24.30;99.90;;;;;;4892966;29;20567;-83
2023/07/16 11:08:03;;;;;;;3.92;1.60;;;24.40;99.90;;;;;;4894872;29;20060;-82
2023/07/16 11:10:30;;;;;;;7.63;1.30;;;24.50;99.90;;;;;;4889406;29;20105;-80
2023/07/16 11:12:58;;;;;;;4.63;1.80;;;24.50;99.90;;;;;;4895777;29;20052;-81
2023/07/16 11:15:35;;;;;;;5.13;1.52;;;24.50;99.90;;;;;;4902111;29;20056;-82
2023/07/16 11:18:02;;;;;;;7.32;1.67;;;24.60;99.90;;;;;;4891750;29;20053;-80
2023/07/16 11:20:30;;;;;;;4.07;1.40;;;24.70;99.90;;;;;;4891960;29;20612;-83
2023/07/16 11:23:01;;;;;;;3.25;1.58;;;24.80;99.90;;;;;;4889674;29;20497;-80
2023/07/16 11:25:29;;;;;;;1.92;1.17;;;24.90;99.90;;;;;;4893168;29;20077;-80
2023/07/16 11:27:56;;;;;;;6.72;1.50;;;25.00;99.90;;;;;;4897279;29;20048;-81
2023/07/16 11:30:24;;;;;;;7.78;1.52;;;25.00;99.90;;;;;;4896117;29;20050;-80
2023/07/16 11:32:51;;;;;;;6.13;1.70;;;25.00;99.90;;;;;;4890635;29;20112;-81
2023/07/16 11:35:20;;;;;;;6.20;1.45;;;25.00;99.90;;;;;;4893549;29;20086;-82
2023/07/16 11:37:47;;;;;;;5.80;1.23;;;25.00;99.90;;;;;;4891997;29;20086;-83
2023/07/16 11:40:17;;;;;;;3.90;1.42;;;25.00;99.90;;;;;;4898023;29;20081;-82
2023/07/16 11:42:44;;;;;;;5.30;1.47;;;25.00;99.90;;;;;;4900041;29;20060;-80
2023/07/16 11:45:22;;;;;;;5.03;1.48;;;24.90;99.90;;;;;;4897165;29;20113;-81
2023/07/16 11:47:49;;;;;;;5.68;1.52;;;24.90;99.90;;;;;;4890056;29;20051;-80
2023/07/16 11:50:17;;;;;;;5.65;1.70;;;25.00;99.90;;;;;;4894915;29;20136;-80
2023/07/16 11:52:55;;;;;;;6.63;1.92;;;25.00;99.90;;;;;;4890924;29;20053;-80
2023/07/16 11:55:22;;;;;;;6.57;2.08;;;25.00;99.90;;;;;;4893278;29;20052;-80
2023/07/16 11:57:49;;;;;;;5.82;1.70;;;25.00;99.90;;;;;;4901409;29;20040;-80
2023/07/16 12:00:17;;;;;;;3.10;1.27;;;25.00;99.90;;;;;;4896670;29;20049;-79
2023/07/16 12:02:50;;;;;;;8.02;1.30;;;25.00;99.90;;;;;;4889724;29;20076;-81
2023/07/16 12:05:19;;;;;;;7.05;1.52;;;25.10;99.90;;;;;;4910155;29;20056;-80
2023/07/16 12:07:45;;;;;;;8.82;1.90;;;25.20;99.90;;;;;;4891019;29;20053;-80
2023/07/16 12:10:12;;;;;;;7.78;1.45;;;25.20;99.90;;;;;;4889740;29;20068;-80
2023/07/16 12:12:39;;;;;;;5.28;1.83;;;25.30;99.90;;;;;;4897684;29;20502;-79
2023/07/16 12:15:07;;;;;;;3.42;1.30;;;25.30;99.90;;;;;;4896548;29;20049;-81
2023/07/16 12:17:34;;;;;;;5.53;1.63;;;25.30;99.90;;;;;;4890796;29;20049;-81
2023/07/16 12:20:03;;;;;;;3.65;1.40;;;25.20;99.90;;;;;;4892903;29;20053;-81
2023/07/16 12:22:31;;;;;;;5.20;1.55;;;25.20;99.90;;;;;;4890435;29;20484;-81
2023/07/16 12:24:58;;;;;;;6.90;2.00;;;25.30;99.90;;;;;;4897716;29;20053;-83
2023/07/16 12:27:25;;;;;;;3.35;1.30;;;25.30;99.90;;;;;;4896580;29;20072;-83
2023/07/16 12:29:52;;;;;;;5.40;1.50;;;25.30;99.90;;;;;;4897477;29;20503;-83
2023/07/16 12:32:20;;;;;;;6.38;1.63;;;25.30;99.90;;;;;;4891419;29;20072;-82
2023/07/16 12:34:47;;;;;;;4.57;1.58;;;25.30;99.90;;;;;;4893022;29;20049;-81
2023/07/16 12:37:14;;;;;;;6.47;1.90;;;25.20;99.90;;;;;;4892302;29;20056;-81
2023/07/16 12:39:40;;;;;;;3.70;1.77;;;25.10;99.90;;;;;;4895154;29;20092;-82
2023/07/16 12:42:08;;;;;;;5.45;1.48;;;25.00;99.90;;;;;;4896234;29;20057;-80
2023/07/16 12:44:34;;;;;;;5.18;1.95;;;24.90;99.90;;;;;;4900346;29;20067;-81
2023/07/16 12:47:01;;;;;;;9.35;2.17;;;24.90;99.90;;;;;;4889317;29;20059;-82
2023/07/16 12:49:28;;;;;;;4.78;1.70;;;24.90;99.90;;;;;;4892203;29;20045;-80
2023/07/16 12:51:55;;;;;;;5.22;1.48;;;24.90;99.90;;;;;;4891886;29;20570;-81
2023/07/16 12:54:21;;;;;;;4.40;1.77;;;24.90;99.90;;;;;;4891470;29;20108;-82
2023/07/16 12:56:48;;;;;;;3.65;1.55;;;25.00;99.90;;;;;;4894867;29;20048;-81
2023/07/16 12:59:15;;;;;;;7.13;1.65;;;25.00;99.90;;;;;;4895564;29;20152;-82
2023/07/16 13:01:41;;;;;;;4.65;1.25;;;24.90;99.90;;;;;;4891653;29;20147;-83
2023/07/16 13:04:08;;;;;;;2.90;1.60;;;25.00;99.90;;;;;;4896579;29;20065;-80
2023/07/16 13:06:35;;;;;;;5.70;1.70;;;24.90;99.90;;;;;;4892992;29;20077;-79
2023/07/16 13:09:02;;;;;;;6.38;1.58;;;24.90;99.90;;;;;;4904714;29;20056;-80
2023/07/16 13:11:29;;;;;;;4.28;1.65;;;25.00;99.90;;;;;;4893172;29;20469;-82
2023/07/16 13:13:55;;;;;;;2.95;1.50;;;24.90;99.90;;;;;;4904082;29;20053;-82
2023/07/16 13:16:22;;;;;;;5.20;1.45;;;25.00;99.90;;;;;;4896988;29;20049;-82
2023/07/16 13:18:49;;;;;;;2.80;1.17;;;24.90;99.90;;;;;;4892303;29;20049;-80
2023/07/16 13:21:16;;;;;;;4.50;1.38;;;25.00;99.90;;;;;;4898676;29;20053;-81
2023/07/16 13:23:42;;;;;;;5.30;1.65;;;25.00;99.90;;;;;;4888123;29;20519;-82
2023/07/16 13:26:09;;;;;;;5.88;1.73;;;25.00;99.90;;;;;;4885408;29;20053;-82
2023/07/16 13:28:36;;;;;;;3.70;1.40;;;24.90;99.90;;;;;;4895760;29;20041;-80
2023/07/16 13:31:02;;;;;;;2.80;1.30;;;24.90;99.90;;;;;;4896704;29;19948;-80
2023/07/16 13:33:30;;;;;;;4.25;1.30;;;24.80;99.90;;;;;;4901244;29;20052;-81
2023/07/16 13:35:59;;;;;;;4.70;1.50;;;24.80;99.90;;;;;;4894610;29;20052;-81
2023/07/16 13:38:26;;;;;;;3.78;1.60;;;24.80;99.90;;;;;;4895663;29;20063;-80
2023/07/16 13:40:53;;;;;;;3.30;1.35;;;24.80;99.90;;;;;;4888274;29;20052;-81
2023/07/16 13:43:20;;;;;;;4.53;1.33;;;24.80;99.90;;;;;;4888945;29;20049;-80
2023/07/16 13:45:46;;;;;;;3.15;1.42;;;24.80;99.90;;;;;;4890637;29;20053;-81
2023/07/16 13:48:13;;;;;;;2.60;1.10;;;24.70;99.90;;;;;;4891023;29;20181;-79
2023/07/16 13:50:40;;;;;;;4.03;1.40;;;24.70;99.90;;;;;;4893289;29;20045;-81
2023/07/16 13:53:07;;;;;;;4.45;1.50;;;24.70;99.90;;;;;;4889840;29;20048;-80
2023/07/16 13:55:34;;;;;;;4.63;1.70;;;24.70;99.90;;;;;;4893635;29;20063;-80
2023/07/16 13:58:00;;;;;;;5.40;1.60;;;24.60;99.90;;;;;;4888998;29;20075;-80
2023/07/16 14:00:27;;;;;;;3.90;1.73;;;24.60;99.90;;;;;;4891280;29;20077;-79
2023/07/16 14:02:54;;;;;;;7.05;1.73;;;24.60;99.90;;;;;;4897840;29;20053;-79
2023/07/16 14:05:21;;;;;;;7.00;1.70;;;24.70;99.90;;;;;;4891218;29;20072;-80
2023/07/16 14:07:49;;;;;;;4.95;1.50;;;24.70;99.90;;;;;;4893256;29;20116;-80
2023/07/16 14:10:16;;;;;;;7.20;1.80;;;24.60;99.90;;;;;;4895812;29;20056;-80
2023/07/16 14:12:43;;;;;;;4.10;1.48;;;24.60;99.90;;;;;;4883095;29;20045;-79
2023/07/16 14:15:09;;;;;;;4.40;1.40;;;24.60;99.90;;;;;;4904151;29;20053;-80
2023/07/16 14:17:36;;;;;;;5.68;1.52;;;24.70;99.90;;;;;;4887257;29;20082;-80
2023/07/16 14:20:03;;;;;;;5.43;1.52;;;24.70;99.90;;;;;;4891407;29;20049;-80
2023/07/16 14:22:30;;;;;;;5.78;1.60;;;24.70;99.90;;;;;;4887907;29;20068;-80
2023/07/16 14:24:57;;;;;;;3.58;1.48;;;24.70;99.90;;;;;;4891575;29;20052;-80
2023/07/16 14:27:24;;;;;;;6.68;1.70;;;24.80;99.90;;;;;;4887043;29;20049;-81
2023/07/16 14:29:50;;;;;;;3.50;1.48;;;24.80;99.90;;;;;;4888629;29;20049;-80
2023/07/16 14:32:31;;;;;;;;;;;24.70;99.90;;;;;;4893561;29;20147;-80
2023/07/16 14:34:59;;;;;;;4.13;1.50;;;24.70;99.90;;;;;;4895796;29;19966;-80
2023/07/16 14:37:26;;;;;;;6.45;1.38;;;24.80;99.90;;;;;;4889658;29;20056;-79
2023/07/16 14:39:53;;;;;;;3.97;1.45;;;24.80;99.90;;;;;;4898229;29;20063;-80
2023/07/16 14:42:20;;;;;;;7.90;2.10;;;24.70;99.90;;;;;;4888249;29;20049;-81
2023/07/16 14:44:47;;;;;;;7.50;1.73;;;24.70;99.90;;;;;;4890949;29;20049;-80
2023/07/16 14:47:13;;;;;;;4.93;1.60;;;24.80;99.90;;;;;;4893520;29;20484;-80
2023/07/16 14:49:40;;;;;;;6.57;1.52;;;24.80;99.90;;;;;;4894663;29;20053;-80
2023/07/16 14:52:07;;;;;;;4.35;1.30;;;24.80;99.90;;;;;;4893777;29;20049;-80
2023/07/16 14:54:35;;;;;;;6.65;2.17;;;24.80;99.90;;;;;;4895838;29;20128;-80
2023/07/16 14:57:03;;;;;;;5.05;1.90;;;24.90;99.90;;;;;;4896993;29;20049;-81
2023/07/16 14:59:29;;;;;;;3.70;1.70;;;24.90;99.90;;;;;;4896400;29;20463;-80
2023/07/16 15:01:56;;;;;;;4.75;1.80;;;24.90;99.90;;;;;;4893662;29;20059;-80
2023/07/16 15:04:23;;;;;;;6.07;1.95;;;24.90;99.90;;;;;;4900666;29;20049;-79
2023/07/16 15:06:50;;;;;;;2.65;1.38;;;25.00;99.90;;;;;;4893888;29;20052;-81
2023/07/16 15:09:17;;;;;;;4.35;1.55;;;25.00;99.90;;;;;;4889805;29;20121;-79
2023/07/16 15:11:44;;;;;;;2.78;1.35;;;25.10;99.90;;;;;;4892923;29;20568;-80
2023/07/16 15:14:11;;;;;;;5.05;1.65;;;25.20;99.90;;;;;;4890719;29;20068;-80
2023/07/16 15:16:39;;;;;;;4.40;1.65;;;25.30;99.90;;;;;;4895722;29;20099;-80
2023/07/16 15:19:07;;;;;;;3.45;1.48;;;25.40;99.90;;;;;;4898616;29;20117;-80
2023/07/16 15:21:37;;;;;;;4.13;1.67;;;25.50;99.90;;;;;;4895285;29;20080;-80
2023/07/16 15:24:05;;;;;;;4.50;1.60;;;25.70;99.90;;;;;;4894503;29;20053;-80
2023/07/16 15:26:32;;;;;;;4.53;1.35;;;25.70;99.90;;;;;;4899990;29;20049;-81
2023/07/16 15:28:59;;;;;;;3.30;1.40;;;25.80;99.90;;;;;;4893771;29;20559;-80
2023/07/16 15:31:27;;;;;;;4.03;1.42;;;25.90;99.90;;;;;;4896049;29;20049;-80
2023/07/16 15:33:55;;;;;;;3.35;1.60;;;25.90;99.90;;;;;;4893280;29;20139;-80
2023/07/16 15:36:23;;;;;;;4.57;1.38;;;25.90;99.90;;;;;;4892164;29;20505;-80
2023/07/16 15:38:49;;;;;;;5.35;1.40;;;25.80;99.90;;;;;;4899002;29;20080;-80
2023/07/16 15:41:23;;;;;;;4.95;1.60;;;25.80;99.90;;;;;;4888661;29;20053;-80
2023/07/16 15:43:50;;;;;;;4.85;2.10;;;25.70;99.90;;;;;;4890322;29;20080;-80
2023/07/16 15:46:17;;;;;;;3.35;1.60;;;25.70;99.90;;;;;;4895124;29;20183;-81
2023/07/16 15:48:45;;;;;;;5.22;1.70;;;25.70;99.90;;;;;;4893544;29;20116;-80
2023/07/16 15:51:13;;;;;;;4.75;1.75;;;25.80;99.90;;;;;;4893850;29;20523;-79
2023/07/16 15:53:41;;;;;;;3.53;1.50;;;25.70;99.90;;;;;;4894638;29;20101;-80
2023/07/16 15:56:11;;;;;;;3.15;1.55;;;25.70;99.90;;;;;;4896519;29;20516;-80
2023/07/16 15:58:39;;;;;;;4.35;1.45;;;25.70;99.90;;;;;;4900421;29;20052;-80
2023/07/16 16:01:06;;;;;;;2.65;1.33;;;25.70;99.90;;;;;;4894779;29;20049;-81
2023/07/16 16:03:33;;;;;;;2.75;1.58;;;25.70;99.90;;;;;;4888844;29;20053;-80
2023/07/16 16:06:00;;;;;;;4.25;1.67;;;25.80;99.90;;;;;;4894934;29;20512;-80
2023/07/16 16:08:27;;;;;;;5.32;1.45;;;25.80;99.90;;;;;;4895680;29;20049;-78
2023/07/16 16:10:53;;;;;;;4.80;1.60;;;25.80;99.90;;;;;;4892596;29;20416;-79
2023/07/16 16:13:22;;;;;;;5.93;2.00;;;25.80;99.90;;;;;;4888476;29;20461;-80
2023/07/16 16:15:50;;;;;;;3.75;1.83;;;25.90;99.90;;;;;;4892758;29;20461;-80
2023/07/16 16:18:17;;;;;;;4.47;1.60;;;25.90;99.90;;;;;;4894494;29;20402;-78
2023/07/16 16:20:45;;;;;;;3.72;1.70;;;25.90;99.90;;;;;;4893638;29;20057;-80
2023/07/16 16:23:13;;;;;;;4.55;1.50;;;26.00;99.90;;;;;;4894434;29;20074;-80
2023/07/16 16:25:40;;;;;;;3.50;2.00;;;26.00;99.90;;;;;;4888931;29;20131;-80
2023/07/16 16:28:08;;;;;;;5.07;1.50;;;26.10;99.90;;;;;;4889965;29;20314;-79
2023/07/16 16:30:36;;;;;;;3.40;1.33;;;26.10;99.90;;;;;;4908829;29;20049;-81
2023/07/16 16:33:03;;;;;;;5.75;1.52;;;26.20;99.90;;;;;;4899147;29;20128;-81
2023/07/16 16:35:39;;;;;;;3.85;1.55;;;26.30;99.90;;;;;;4892934;29;20505;-80
2023/07/16 16:38:09;;;;;;;5.45;1.38;;;26.30;99.90;;;;;;4894730;29;20077;-80
2023/07/16 16:40:37;;;;;;;;;;;26.30;99.90;;;;;;4889918;29;20052;-80
2023/07/16 16:43:05;;;;;;;5.43;1.63;;;26.30;99.90;;;;;;4892798;29;19924;-81
2023/07/16 16:45:33;;;;;;;2.78;1.20;;;26.30;99.90;;;;;;4909824;29;20101;-81
2023/07/16 16:48:03;;;;;;;4.55;1.27;;;26.30;99.90;;;;;;4899126;29;20056;-79
2023/07/16 16:50:30;;;;;;;;;;;26.30;99.90;;;;;;4907711;29;20432;-80
2023/07/16 16:52:58;;;;;;;3.40;1.30;;;26.20;99.90;;;;;;4894644;29;19923;-79
2023/07/16 16:55:26;;;;;;;3.25;1.20;;;26.20;99.90;;;;;;4893091;29;20048;-80
2023/07/16 16:57:53;;;;;;;4.05;1.63;;;26.10;99.90;;;;;;4895773;29;20048;-79
2023/07/16 17:00:20;;;;;;;5.13;1.90;;;26.00;99.90;;;;;;4894478;29;20065;-80
2023/07/16 17:02:47;;;;;;;3.83;1.40;;;26.00;99.90;;;;;;4900519;29;20183;-80
2023/07/16 17:05:14;;;;;;;5.47;1.75;;;26.00;99.90;;;;;;4897083;29;20113;-81
2023/07/16 17:07:41;;;;;;;2.97;1.40;;;26.00;99.90;;;;;;4907608;29;20057;-81
2023/07/16 17:10:08;;;;;;;4.03;1.70;;;26.00;99.90;;;;;;4898025;29;20052;-81
2023/07/16 17:12:35;;;;;;;2.97;1.75;;;25.90;99.90;;;;;;4889566;29;20398;-81
2023/07/16 17:15:05;;;;;;;4.38;1.75;;;25.90;99.90;;;;;;4894704;29;20576;-80
2023/07/16 17:17:32;;;;;;;4.78;1.65;;;25.90;99.90;;;;;;4898876;29;20087;-80
2023/07/16 17:19:59;;;;;;;6.35;1.77;;;25.90;99.90;;;;;;4900090;29;20059;-81
2023/07/16 17:22:26;;;;;;;5.88;1.45;;;25.80;99.90;;;;;;4893877;29;20059;-81
2023/07/16 17:24:53;;;;;;;6.28;1.90;;;25.70;99.90;;;;;;4894504;29;20424;-81
2023/07/16 17:27:20;;;;;;;5.93;1.25;;;25.60;99.90;;;;;;4887823;29;20057;-80
2023/07/16 17:29:48;;;;;;;3.53;1.42;;;25.50;99.90;;;;;;4897088;29;20048;-81
2023/07/16 17:32:15;;;;;;;3.40;1.63;;;25.50;99.90;;;;;;4897295;29;20604;-81
2023/07/16 17:34:42;;;;;;;4.07;1.58;;;25.50;99.90;;;;;;4892201;29;20500;-81
2023/07/16 17:37:12;;;;;;;2.28;1.33;;;25.30;99.90;;;;;;4897388;29;20106;-81
2023/07/16 17:39:38;;;;;;;;;;;25.30;99.90;;;;;;4896067;29;20044;-81
2023/07/16 17:42:05;;;;;;;3.63;1.50;;;25.30;99.90;;;;;;4906557;29;20390;-81
2023/07/16 17:44:32;;;;;;;5.88;1.90;;;25.30;99.90;;;;;;4895354;29;20049;-81
2023/07/16 17:46:59;;;;;;;3.88;1.77;;;25.30;99.90;;;;;;4895438;29;20507;-82
2023/07/16 17:49:26;;;;;;;5.40;1.70;;;25.30;99.90;;;;;;4893551;29;20049;-81
2023/07/16 17:51:54;;;;;;;4.30;2.65;;;25.20;99.90;;;;;;4902091;29;20048;-81
2023/07/16 17:54:22;;;;;;;5.78;2.30;;;25.20;99.90;;;;;;4895774;29;20105;-81
2023/07/16 17:56:51;;;;;;;7.15;2.40;;;25.10;99.90;;;;;;4902075;29;20128;-81
2023/07/16 17:59:19;;;;;;;5.00;1.88;;;25.10;99.90;;;;;;4898218;29;20045;-81
2023/07/16 18:01:47;;;;;;;9.63;6.18;;;25.10;99.90;;;;;;4897178;29;20052;-80
2023/07/16 18:04:15;;;;;;;6.18;3.40;;;25.10;99.90;;;;;;4894573;29;20051;-80
2023/07/16 18:06:42;;;;;;;3.67;1.50;;;25.10;99.90;;;;;;4890276;29;20109;-80
2023/07/16 18:09:11;;;;;;;3.55;1.48;;;25.10;99.90;;;;;;4891525;29;20052;-80